Riverton Regional Airport
KRIW : rendu visible

Aérodrome :











RETROUVEZ-NOUS SUR...

 
LOGIN :

S'inscrire | Disclaimer

   EN    FR    IT 

 









Légende :    VFR   VFR Marginal   IFR   IFR Intensif   IFR Très Intensif
Visi : 
Plafond : 
>= 8 km
>= 3000ft
5 à 8 km
1000 à 3000 ft
1500m à 5 km
500 à 1000 ft
800 à 1500m
200 à 500 ft
< 800m
< 200 ft
Symboles :   Orages  Brouillard  Fortes neiges  Fortes précipitations  Vent > 20 kt






- Altitude de l'aérodrome : 5525 ft


KRIW - Riverton Regional

DERNIER METAR :
  • 100853Z AUTO 20008KT 10SM CLR M12/M13 A3003 RMK AO2 SLP226 I1000 I3000 T11221133 58001

METARs EXPIRÉS :
  • 100753Z AUTO 19004KT 10SM CLR M13/M14 A3004 RMK AO2 SLP234 I1000 T11331144
  • 100653Z AUTO 24004KT 10SM CLR M12/M13 A3005 RMK AO2 SLP231 I1000 T11171133 410281139

TAF KRIW
Valide du 10 à 06h jusqu'au 11 à 06h UTC


100520Z 1006/1106 VRB05KT P6SM SCT110
FM110200 25007KT P6SM SCT110



MET'MAP, la Météo Aéronautique d'un coup d'oeil ! - Copyright ORBIFLY Décembre 2007 - Disclaimer

ORBIFLY MET'MAP TEAM :

Programmation & Développement : Alexandra Zaïnal
Sur une idée originale de : Baudouin d'Aumeries
Assistance à la programmation : Marc-Olivier Méhu
Soutien technique & logistique : Manuel Goepfert

Contact : metmap@orbifly.com




SOURCES & CREDITS :

   NOAA       Earth
Advisory